Oklahoma City, Oklahoma
Current Conditions -  °F | °C
As of 9:52 PM on Tuesday 21 Oct 2014 (Local Time) from KOKC Reporting Station
Clear Clear  
Wind Chill: 65°   Ceiling: Unl
Heat Index: 65°   Visibility: 10mi
Dew Point: 57°   Wind: 5mph
Humidity: 75%   Direction: 160°SSE
Pressure: 30.07"   Gusts: NA
Location:  35.47°N, 97.52°W
Report Text: KOKC 220252Z 16004KT 10SM CLR 18/14 A3007 RMK AO2 SLP172 T01830139 53014
Loading
Personal Weather Stations






























Interactive Weather Map New forecast layout! Learn more

10-Day Weather Forecast

Advertisements
Track Severe Weather on mobile